createdAt,value
2023-02-06T00:00:10.066Z,102286.59
2023-02-06T00:02:37.909Z,102287.50
2023-02-06T00:05:04.830Z,102283.88
2023-02-06T00:07:31.335Z,102282.09
2023-02-06T00:09:57.919Z,102284.81
2023-02-06T00:12:24.389Z,102277.63
2023-02-06T00:14:50.891Z,102273.13
2023-02-06T00:17:17.370Z,102267.69
2023-02-06T00:19:45.202Z,102272.22
2023-02-06T00:22:11.749Z,102276.69
2023-02-06T00:24:38.285Z,102265.91
2023-02-06T00:27:04.772Z,102264.09
2023-02-06T00:29:31.225Z,102263.19
2023-02-06T00:31:57.845Z,102256.84
2023-02-06T00:34:24.777Z,102252.38
2023-02-06T00:36:52.735Z,102252.38
2023-02-06T00:39:19.570Z,102246.06
2023-02-06T00:41:46.187Z,102248.72
2023-02-06T00:44:12.684Z,102242.41
2023-02-06T00:46:39.223Z,102244.22
2023-02-06T00:49:05.767Z,102250.47
2023-02-06T00:51:32.249Z,102243.22
2023-02-06T00:54:00.296Z,102245.00
2023-02-06T00:56:26.756Z,102248.56
2023-02-06T00:58:53.287Z,102252.13
2023-02-06T01:01:19.875Z,102251.22
2023-02-06T01:03:46.390Z,102253.94
2023-02-06T01:06:13.096Z,102246.69
2023-02-06T01:08:39.612Z,102235.09
2023-02-06T01:11:11.405Z,102245.75
2023-02-06T01:13:38.595Z,102255.56
2023-02-06T01:16:09.973Z,102255.69
2023-02-06T01:18:36.810Z,102254.78
2023-02-06T01:21:08.332Z,102247.72
2023-02-06T01:23:34.842Z,102243.16
2023-02-06T01:26:04.948Z,102244.13
2023-02-06T01:28:35.071Z,102248.50
2023-02-06T01:31:01.884Z,102251.16
2023-02-06T01:33:29.378Z,102249.38
2023-02-06T01:35:56.335Z,102251.06
2023-02-06T01:38:22.790Z,102248.47
2023-02-06T01:40:49.285Z,102252.97
2023-02-06T01:43:18.394Z,102268.22
2023-02-06T01:45:46.900Z,102256.50
2023-02-06T01:48:17.357Z,102263.72
2023-02-06T01:50:47.925Z,102261.91
2023-02-06T01:53:16.322Z,102255.59
2023-02-06T01:55:45.653Z,102252.00
2023-02-06T01:58:16.313Z,102260.06
2023-02-06T02:00:42.976Z,102254.72
2023-02-06T02:03:11.596Z,102263.63
2023-02-06T02:05:40.186Z,102261.84
2023-02-06T02:08:12.036Z,102257.25
2023-02-06T02:10:39.060Z,102250.16
2023-02-06T02:13:05.847Z,102248.41
2023-02-06T02:15:41.176Z,102252.00
2023-02-06T02:18:25.536Z,102250.19
2023-02-06T02:21:24.592Z,102252.09
2023-02-06T02:23:57.283Z,102246.78
2023-02-06T02:27:10.668Z,102231.50
2023-02-06T02:30:04.099Z,102227.94
2023-02-06T02:32:57.216Z,102228.84
2023-02-06T02:35:29.651Z,102217.22
2023-02-06T02:38:06.996Z,102221.69
2023-02-06T02:40:43.248Z,102213.59
2023-02-06T02:43:18.174Z,102220.75
2023-02-06T02:45:50.049Z,102228.78
2023-02-06T02:48:21.861Z,102236.88
2023-02-06T02:50:51.123Z,102243.09
2023-02-06T02:53:17.596Z,102252.97
2023-02-06T02:55:44.315Z,102245.81
2023-02-06T02:58:14.653Z,102249.50
2023-02-06T03:00:44.620Z,102235.09
2023-02-06T03:03:14.522Z,102246.75
2023-02-06T03:05:51.617Z,102254.69
2023-02-06T03:08:28.344Z,102254.66
2023-02-06T03:11:09.560Z,102254.59
2023-02-06T03:13:42.568Z,102247.50
2023-02-06T03:16:15.226Z,102252.75
2023-02-06T03:18:46.163Z,102252.69
2023-02-06T03:21:17.860Z,102251.94
2023-02-06T03:23:48.877Z,102250.94
2023-02-06T03:26:20.466Z,102243.75
2023-02-06T03:28:49.672Z,102235.69
2023-02-06T03:31:20.426Z,102238.44
2023-02-06T03:33:51.471Z,102246.38
2023-02-06T03:36:18.770Z,102235.66
2023-02-06T03:38:49.377Z,102239.09
2023-02-06T03:41:23.240Z,102237.25
2023-02-06T03:43:51.990Z,102244.47
2023-02-06T03:46:18.945Z,102239.19
2023-02-06T03:48:50.009Z,102234.69
2023-02-06T03:51:21.568Z,102232.91
2023-02-06T03:53:52.746Z,102229.34
2023-02-06T03:56:25.348Z,102224.78
2023-02-06T03:58:51.900Z,102228.25
2023-02-06T04:01:18.958Z,102226.44
2023-02-06T04:03:46.007Z,102213.03
2023-02-06T04:06:12.534Z,102206.84
2023-02-06T04:08:39.036Z,102215.75
2023-02-06T04:11:06.882Z,102214.03
2023-02-06T04:13:33.772Z,102205.13
2023-02-06T04:16:01.186Z,102214.94
2023-02-06T04:18:27.740Z,102228.34
2023-02-06T04:20:54.235Z,102238.19
2023-02-06T04:23:21.364Z,102229.28
2023-02-06T04:25:48.077Z,102228.47
2023-02-06T04:28:15.952Z,102237.44
2023-02-06T04:30:42.617Z,102235.69
2023-02-06T04:33:09.235Z,102245.50
2023-02-06T04:35:35.896Z,102242.53
2023-02-06T04:38:02.689Z,102241.53
2023-02-06T04:40:29.202Z,102246.13
2023-02-06T04:42:55.674Z,102255.19
2023-02-06T04:45:23.715Z,102256.25
2023-02-06T04:47:50.235Z,102258.09
2023-02-06T04:50:17.194Z,102265.19
2023-02-06T04:52:44.037Z,102254.47
2023-02-06T04:55:10.580Z,102255.44
2023-02-06T04:57:37.672Z,102256.34
2023-02-06T05:00:06.452Z,102256.44
2023-02-06T05:02:34.410Z,102259.94
2023-02-06T05:05:00.981Z,102258.19
2023-02-06T05:07:27.439Z,102263.56
2023-02-06T05:09:54.019Z,102259.09
2023-02-06T05:12:20.526Z,102261.84
2023-02-06T05:14:47.226Z,102261.91
2023-02-06T05:17:13.790Z,102264.69
2023-02-06T05:19:42.124Z,102254.88
2023-02-06T05:22:08.803Z,102253.97
2023-02-06T05:24:35.295Z,102244.06
2023-02-06T05:27:02.088Z,102245.00
2023-02-06T05:29:28.604Z,102242.34
2023-02-06T05:31:55.214Z,102247.78
2023-02-06T05:34:21.964Z,102246.03
2023-02-06T05:36:49.855Z,102231.69
2023-02-06T05:39:16.863Z,102235.28
2023-02-06T05:41:43.473Z,102227.19
2023-02-06T05:44:10.035Z,102239.78
2023-02-06T05:46:36.926Z,102226.31
2023-02-06T05:49:03.618Z,102229.03
2023-02-06T05:51:30.331Z,102220.00
2023-02-06T05:53:58.172Z,102217.31
2023-02-06T05:56:24.681Z,102218.22
2023-02-06T05:58:51.265Z,102224.47
2023-02-06T06:01:17.775Z,102210.09
2023-02-06T06:03:44.642Z,102224.50
2023-02-06T06:06:11.442Z,102230.75
2023-02-06T06:08:41.772Z,102215.44
2023-02-06T06:11:09.655Z,102221.72
2023-02-06T06:13:36.130Z,102220.78
2023-02-06T06:16:07.892Z,102225.25
2023-02-06T06:18:36.362Z,102215.38
2023-02-06T06:21:08.240Z,102215.38
2023-02-06T06:23:34.848Z,102214.53
2023-02-06T06:26:02.546Z,102211.88
2023-02-06T06:28:30.404Z,102208.34
2023-02-06T06:31:01.937Z,102209.22
2023-02-06T06:33:28.747Z,102210.94
2023-02-06T06:35:55.354Z,102221.75
2023-02-06T06:38:21.977Z,102223.50
2023-02-06T06:40:48.542Z,102218.13
2023-02-06T06:43:15.082Z,102206.50
2023-02-06T06:45:42.953Z,102212.78
2023-02-06T06:48:09.509Z,102213.63
2023-02-06T06:50:36.178Z,102202.94
2023-02-06T06:53:02.774Z,102195.75
2023-02-06T06:55:29.353Z,102208.34
2023-02-06T06:57:55.945Z,102211.00
2023-02-06T07:00:24.515Z,102203.84
2023-02-06T07:02:53.002Z,102209.25
2023-02-06T07:05:19.651Z,102214.66
2023-02-06T07:07:49.374Z,102208.38
2023-02-06T07:10:16.620Z,102208.41
2023-02-06T07:12:43.216Z,102212.91
2023-02-06T07:15:10.566Z,102211.09
2023-02-06T07:17:37.160Z,102212.91
2023-02-06T07:20:06.167Z,102220.09
2023-02-06T07:22:32.716Z,102222.78
2023-02-06T07:24:59.442Z,102224.59
2023-02-06T07:27:25.961Z,102225.47
2023-02-06T07:29:52.526Z,102223.69
2023-02-06T07:32:19.327Z,102217.38
2023-02-06T07:34:45.907Z,102219.16
2023-02-06T07:37:13.800Z,102221.84
2023-02-06T07:43:15.215Z,102221.78
2023-02-06T07:45:41.696Z,102216.41
2023-02-06T07:48:08.943Z,102220.03
2023-02-06T07:50:35.503Z,102209.16
2023-02-06T07:53:03.445Z,102202.84
2023-02-06T07:55:30.184Z,102210.00
2023-02-06T07:57:56.724Z,102201.88
2023-02-06T08:00:23.323Z,102198.25
2023-02-06T08:02:49.883Z,102191.94
2023-02-06T08:05:16.543Z,102199.09
2023-02-06T08:07:56.096Z,102202.75
2023-02-06T08:10:24.676Z,102212.63
2023-02-06T08:12:51.230Z,102213.47
2023-02-06T08:15:18.048Z,102214.31
2023-02-06T08:17:44.623Z,102214.28
2023-02-06T08:20:12.364Z,102215.19
2023-02-06T08:22:39.230Z,102208.81
2023-02-06T08:25:06.666Z,102209.69
2023-02-06T08:27:34.673Z,102215.09
2023-02-06T08:30:01.204Z,102216.06
2023-02-06T08:32:33.294Z,102219.59
2023-02-06T08:34:59.830Z,102216.81
2023-02-06T08:37:26.610Z,102219.47
2023-02-06T08:39:53.234Z,102206.03
2023-02-06T08:42:19.822Z,102201.50
2023-02-06T08:44:47.785Z,102197.06
2023-02-06T08:47:16.457Z,102200.75
2023-02-06T08:49:42.999Z,102208.81
2023-02-06T08:52:09.560Z,102212.31
2023-02-06T08:54:38.677Z,102219.47
2023-02-06T08:57:05.758Z,102218.47
2023-02-06T08:59:32.391Z,102213.84
2023-02-06T09:02:00.301Z,102216.47
2023-02-06T09:04:30.081Z,102220.66
2023-02-06T09:06:56.579Z,102209.59
2023-02-06T09:09:23.355Z,102213.78
2023-02-06T09:11:49.956Z,102217.13
2023-02-06T09:14:17.743Z,102205.59
2023-02-06T09:16:44.614Z,102219.97
2023-02-06T09:19:13.188Z,102216.25
2023-02-06T09:21:39.753Z,102207.88
2023-02-06T09:24:08.244Z,102207.50
2023-02-06T09:26:38.928Z,102210.97
2023-02-06T09:29:10.074Z,102209.03
2023-02-06T09:31:39.173Z,102206.19
2023-02-06T09:34:06.799Z,102203.16
2023-02-06T09:36:35.188Z,102206.56
2023-02-06T09:39:04.200Z,102217.31
2023-02-06T09:41:35.130Z,102219.00
2023-02-06T09:44:05.332Z,102219.72
2023-02-06T09:46:33.832Z,102216.34
2023-02-06T09:49:06.023Z,102221.75
2023-02-06T09:51:44.161Z,102220.66
2023-02-06T09:54:20.529Z,102227.00
2023-02-06T09:56:53.221Z,102220.28
2023-02-06T09:59:27.503Z,102210.97
2023-02-06T10:02:08.918Z,102214.06
2023-02-06T10:04:44.063Z,102215.47
2023-02-06T10:07:23.276Z,102220.16
2023-02-06T10:09:54.342Z,102224.41
2023-02-06T10:12:27.442Z,102233.69
2023-02-06T10:14:58.030Z,102235.69
2023-02-06T10:17:30.108Z,102237.88
2023-02-06T10:20:02.540Z,102232.78
2023-02-06T10:22:38.824Z,102228.94
2023-02-06T10:25:18.842Z,102217.50
2023-02-06T10:27:48.981Z,102214.66
2023-02-06T10:30:18.703Z,102198.84
2023-02-06T10:32:53.281Z,102202.41
2023-02-06T10:35:29.517Z,102211.00
2023-02-06T10:38:25.816Z,102205.31
2023-02-06T10:40:57.631Z,102207.66
2023-02-06T10:43:34.788Z,102209.38
2023-02-06T10:46:23.763Z,102201.75
2023-02-06T10:48:57.533Z,102196.97
2023-02-06T10:51:30.107Z,102189.50
2023-02-06T10:54:01.224Z,102186.25
2023-02-06T10:56:30.039Z,102184.75
2023-02-06T10:58:59.872Z,102186.72
2023-02-06T11:01:30.414Z,102189.31
2023-02-06T11:04:02.101Z,102190.34
2023-02-06T11:06:29.703Z,102185.13
2023-02-06T11:08:57.866Z,102187.13
2023-02-06T11:11:27.167Z,102185.34
2023-02-06T11:13:58.715Z,102186.84
2023-02-06T11:16:27.144Z,102176.34
2023-02-06T11:18:55.979Z,102175.41
2023-02-06T11:21:48.495Z,102178.97
2023-02-06T11:24:19.057Z,102177.56
2023-02-06T11:26:49.209Z,102174.38
2023-02-06T11:29:18.282Z,102166.13
2023-02-06T11:31:46.980Z,102171.78
2023-02-06T11:34:24.373Z,102160.81
2023-02-06T11:36:53.487Z,102157.44
2023-02-06T11:39:29.449Z,102169.03
2023-02-06T11:41:57.770Z,102162.31
2023-02-06T11:44:25.255Z,102156.56
2023-02-06T11:46:51.805Z,102135.50
2023-02-06T11:49:26.209Z,102124.81
2023-02-06T11:51:54.296Z,102129.78
2023-02-06T11:54:27.362Z,102130.56
2023-02-06T11:57:32.525Z,102124.31
2023-02-06T12:00:19.970Z,102124.69
2023-02-06T12:02:55.835Z,102119.47
2023-02-06T12:05:37.658Z,102120.41
2023-02-06T12:08:10.381Z,102116.75
2023-02-06T12:10:50.710Z,102113.94
2023-02-06T12:13:23.177Z,102126.31
2023-02-06T12:15:54.145Z,102106.50
2023-02-06T12:18:23.857Z,102116.13
2023-02-06T12:20:56.599Z,102126.78
2023-02-06T12:23:27.407Z,102114.53
2023-02-06T12:25:56.828Z,102117.06
2023-02-06T12:28:28.566Z,102123.56
2023-02-06T12:30:58.876Z,102121.97
2023-02-06T12:33:29.240Z,102134.03
2023-02-06T12:36:01.128Z,102123.88
2023-02-06T12:38:45.396Z,102118.56
2023-02-06T12:41:28.206Z,102127.13
2023-02-06T12:43:59.423Z,102123.06
2023-02-06T12:46:28.415Z,102122.53
2023-02-06T12:48:59.536Z,102119.59
2023-02-06T12:51:32.455Z,102116.94
2023-02-06T12:54:04.041Z,102118.91
2023-02-06T12:56:35.628Z,102112.69
2023-02-06T12:59:16.528Z,102111.00
2023-02-06T13:01:54.261Z,102107.66
2023-02-06T13:04:24.740Z,102112.63
2023-02-06T13:06:55.145Z,102112.50
2023-02-06T13:09:25.850Z,102100.75
2023-02-06T13:11:53.066Z,102105.13
2023-02-06T13:14:22.826Z,102094.28
2023-02-06T13:16:54.970Z,102093.72
2023-02-06T13:19:31.266Z,102085.44
2023-02-06T13:22:34.041Z,102092.34
2023-02-06T13:25:01.919Z,102089.72
2023-02-06T13:27:37.624Z,102088.91
2023-02-06T13:30:37.346Z,102073.66
2023-02-06T13:33:15.604Z,102083.44
2023-02-06T13:35:55.907Z,102077.16
2023-02-06T13:38:29.193Z,102071.31
2023-02-06T13:41:28.097Z,102078.50
2023-02-06T13:43:58.389Z,102078.38
2023-02-06T13:46:37.319Z,102066.09
2023-02-06T13:49:33.469Z,102076.66
2023-02-06T13:52:09.564Z,102073.50
2023-02-06T13:55:05.397Z,102059.16
2023-02-06T13:57:54.235Z,102063.66
2023-02-06T14:00:23.715Z,102069.03
2023-02-06T14:02:55.148Z,102064.94
2023-02-06T14:05:33.524Z,102048.56
2023-02-06T14:08:08.208Z,102049.84
2023-02-06T14:10:50.873Z,102059.66
2023-02-06T14:13:33.349Z,102059.28
2023-02-06T14:16:22.167Z,102058.38
2023-02-06T14:18:56.881Z,102072.56
2023-02-06T14:21:33.362Z,102077.00
2023-02-06T14:24:15.196Z,102070.94
2023-02-06T14:26:52.829Z,102071.22
2023-02-06T14:29:29.854Z,102078.88
2023-02-06T14:32:27.752Z,102076.78
2023-02-06T14:35:15.496Z,102073.25
2023-02-06T14:37:57.670Z,102065.88
2023-02-06T14:40:26.643Z,102065.72
2023-02-06T14:42:56.738Z,102073.50
2023-02-06T14:45:31.915Z,102074.19
2023-02-06T14:48:03.232Z,102063.13
2023-02-06T14:50:32.719Z,102067.16
2023-02-06T14:53:07.095Z,102071.75
2023-02-06T14:55:36.221Z,102066.19
2023-02-06T14:58:04.296Z,102067.28
2023-02-06T15:00:32.268Z,102063.47
2023-02-06T15:03:08.396Z,102057.97
2023-02-06T15:05:35.620Z,102068.72
2023-02-06T15:08:07.853Z,102075.06
2023-02-06T15:10:38.242Z,102079.53
2023-02-06T15:13:05.095Z,102075.75
2023-02-06T15:15:33.332Z,102078.09
2023-02-06T15:18:01.522Z,102068.84
2023-02-06T15:20:44.409Z,102079.66
2023-02-06T15:23:22.035Z,102084.41
2023-02-06T15:25:58.303Z,102077.41
2023-02-06T15:28:29.000Z,102067.03
2023-02-06T15:30:57.338Z,102069.84
2023-02-06T15:33:25.468Z,102074.44
2023-02-06T15:35:54.635Z,102063.59
2023-02-06T15:38:24.697Z,102059.59
2023-02-06T15:40:54.829Z,102059.47
2023-02-06T15:43:24.283Z,102050.44
2023-02-06T15:45:53.015Z,102053.41
2023-02-06T15:48:24.095Z,102055.38
2023-02-06T15:50:59.202Z,102060.72
2023-02-06T15:53:33.450Z,102057.00
2023-02-06T15:56:02.023Z,102050.19
2023-02-06T15:58:31.854Z,102044.78
2023-02-06T16:00:59.323Z,102040.97
2023-02-06T16:03:29.661Z,102039.34
2023-02-06T16:05:56.993Z,102028.28
2023-02-06T16:08:27.704Z,102034.75
2023-02-06T16:10:58.224Z,102035.38
2023-02-06T16:13:28.257Z,102048.25
2023-02-06T16:16:17.356Z,102048.25
2023-02-06T16:18:43.928Z,102049.34
2023-02-06T16:21:22.166Z,102042.28
2023-02-06T16:23:53.295Z,102041.63
2023-02-06T16:26:23.669Z,102038.06
2023-02-06T16:28:57.756Z,102039.13
2023-02-06T16:31:29.398Z,102035.59
2023-02-06T16:33:58.297Z,102031.53
2023-02-06T16:36:25.309Z,102019.50
2023-02-06T16:39:03.654Z,102019.56
2023-02-06T16:41:34.696Z,102027.88
2023-02-06T16:44:03.875Z,102027.09
2023-02-06T16:46:30.791Z,102036.09
2023-02-06T16:48:59.870Z,102030.81
2023-02-06T16:51:29.014Z,102036.97
2023-02-06T16:53:55.844Z,102029.66
2023-02-06T16:56:25.096Z,102029.59
2023-02-06T16:58:54.894Z,102025.94
2023-02-06T17:01:25.461Z,102023.28
2023-02-06T17:03:53.801Z,102030.72
2023-02-06T17:06:33.258Z,102042.16
2023-02-06T17:09:08.250Z,102029.53
2023-02-06T17:11:35.287Z,102030.38
2023-02-06T17:14:03.333Z,102038.53
2023-02-06T17:16:31.609Z,102039.19
2023-02-06T17:19:06.119Z,102027.91
2023-02-06T17:21:34.219Z,102022.41
2023-02-06T17:24:01.718Z,102027.75
2023-02-06T17:26:33.749Z,102025.84
2023-02-06T17:29:05.866Z,102016.81
2023-02-06T17:31:32.802Z,102017.66
2023-02-06T17:34:02.829Z,102014.84
2023-02-06T17:36:31.456Z,102023.63
2023-02-06T17:38:59.703Z,102026.44
2023-02-06T17:41:26.540Z,102031.19
2023-02-06T17:43:53.187Z,102032.19
2023-02-06T17:46:21.180Z,102035.69
2023-02-06T17:48:48.110Z,102033.72
2023-02-06T17:51:19.120Z,102034.28
2023-02-06T17:53:45.625Z,102035.19
2023-02-06T17:56:16.417Z,102044.22
2023-02-06T17:58:43.134Z,102037.75
2023-02-06T18:01:17.191Z,102031.34
2023-02-06T18:03:47.956Z,102039.69
2023-02-06T18:06:16.707Z,102030.78
2023-02-06T18:08:44.822Z,102023.59
2023-02-06T18:11:16.822Z,102029.38
2023-02-06T18:13:50.327Z,102034.53
2023-02-06T18:16:22.570Z,102034.03
2023-02-06T18:18:52.536Z,102041.38
2023-02-06T18:21:30.152Z,102028.72
2023-02-06T18:24:01.267Z,102028.81
2023-02-06T18:26:28.522Z,102027.97
2023-02-06T18:29:07.010Z,102029.75
2023-02-06T18:31:35.879Z,102022.69
2023-02-06T18:34:05.415Z,102032.44
2023-02-06T18:36:31.996Z,102029.75
2023-02-06T18:39:03.292Z,102038.88
2023-02-06T18:41:30.304Z,102032.63
2023-02-06T18:44:00.194Z,102039.81
2023-02-06T18:46:26.679Z,102055.09
2023-02-06T18:48:55.550Z,102041.63
2023-02-06T18:51:24.444Z,102060.50
2023-02-06T18:53:51.105Z,102062.13
2023-02-06T18:56:20.161Z,102067.44
2023-02-06T18:58:47.029Z,102071.06
2023-02-06T19:01:15.789Z,102063.81
2023-02-06T19:03:42.463Z,102056.50
2023-02-06T19:06:14.520Z,102056.59
2023-02-06T19:08:45.095Z,102055.84
2023-02-06T19:11:14.057Z,102056.75
2023-02-06T19:13:40.889Z,102065.84
2023-02-06T19:16:09.820Z,102061.31
2023-02-06T19:18:39.629Z,102057.81
2023-02-06T19:21:09.786Z,102060.41
2023-02-06T19:23:40.811Z,102053.31
2023-02-06T19:26:10.539Z,102053.31
2023-02-06T19:28:41.717Z,102040.97
2023-02-06T19:31:15.500Z,102047.38
2023-02-06T19:33:45.241Z,102054.56
2023-02-06T19:36:31.482Z,102051.03
2023-02-06T19:39:06.269Z,102037.59
2023-02-06T19:41:38.151Z,102042.94
2023-02-06T19:44:18.968Z,102061.00
2023-02-06T19:46:47.272Z,102060.13
2023-02-06T19:49:17.944Z,102057.41
2023-02-06T19:51:50.927Z,102046.66
2023-02-06T19:54:23.657Z,102040.34
2023-02-06T19:56:52.065Z,102050.28
2023-02-06T20:03:04.623Z,102058.38
2023-02-06T20:05:49.519Z,102059.31
2023-02-06T20:08:19.248Z,102061.94
2023-02-06T20:10:45.942Z,102053.88
2023-02-06T20:13:15.816Z,102052.16
2023-02-06T20:15:44.838Z,102053.03
2023-02-06T20:18:20.215Z,102053.00
2023-02-06T20:20:51.528Z,102060.19
2023-02-06T20:23:19.268Z,102069.22
2023-02-06T20:25:49.493Z,102072.81
2023-02-06T20:28:18.490Z,102057.53
2023-02-06T20:30:45.342Z,102073.66
2023-02-06T20:33:19.238Z,102061.16
2023-02-06T20:36:31.644Z,102063.81
2023-02-06T20:43:03.596Z,102070.13
2023-02-06T20:46:13.002Z,102066.53
2023-02-06T20:55:42.051Z,102075.53
2023-02-06T20:58:17.540Z,102059.34
2023-02-06T21:00:49.041Z,102045.91
2023-02-06T21:03:29.714Z,102048.56
2023-02-06T21:05:58.116Z,102038.72
2023-02-06T21:08:34.149Z,102051.28
2023-02-06T21:11:08.832Z,102053.06
2023-02-06T21:13:37.040Z,102052.16
2023-02-06T21:16:13.551Z,102049.47
2023-02-06T21:18:42.960Z,102037.78
2023-02-06T21:21:12.272Z,102032.44
2023-02-06T21:23:40.250Z,102041.41
2023-02-06T21:26:08.020Z,102027.06
2023-02-06T21:28:37.327Z,102038.72
2023-02-06T21:31:06.723Z,102040.50
2023-02-06T21:33:34.280Z,102040.53
2023-02-06T21:36:03.539Z,102037.81
2023-02-06T21:38:30.168Z,102046.78
2023-02-06T21:41:27.984Z,102041.41
2023-02-06T21:44:18.884Z,102031.56
2023-02-06T21:50:10.706Z,102045.88
2023-02-06T21:52:49.415Z,102040.44
2023-02-06T21:55:16.182Z,102035.97
2023-02-06T21:57:42.846Z,102048.56
2023-02-06T22:00:10.730Z,102036.91
2023-02-06T22:02:37.385Z,102033.28
2023-02-06T22:05:04.758Z,102040.50
2023-02-06T22:07:34.455Z,102040.47
2023-02-06T22:10:03.429Z,102043.13
2023-02-06T22:12:32.989Z,102036.00
2023-02-06T22:15:02.997Z,102031.53
2023-02-06T22:17:30.445Z,102036.88
2023-02-06T22:19:57.047Z,102048.50
2023-02-06T22:22:24.442Z,102034.19
2023-02-06T22:24:52.490Z,102033.28
2023-02-06T22:27:21.411Z,102033.28
2023-02-06T22:29:47.945Z,102030.53
2023-02-06T22:32:14.619Z,102022.53
2023-02-06T22:34:41.325Z,102018.91
2023-02-06T22:37:08.125Z,102012.66
2023-02-06T22:39:34.711Z,102006.31
2023-02-06T22:42:01.434Z,101999.16
2023-02-06T22:44:31.640Z,101997.31
2023-02-06T22:46:58.809Z,102004.50
2023-02-06T22:49:25.663Z,102003.63
2023-02-06T22:51:52.406Z,102010.84
2023-02-06T22:54:19.172Z,102008.06
2023-02-06T22:56:48.202Z,102011.69
2023-02-06T22:59:16.950Z,102004.50
2023-02-06T23:01:47.920Z,102025.13
2023-02-06T23:04:17.154Z,102032.28
2023-02-06T23:06:44.677Z,102031.38
2023-02-06T23:09:22.180Z,102030.47
2023-02-06T23:11:49.333Z,102047.50
2023-02-06T23:14:17.226Z,102051.97
2023-02-06T23:16:46.149Z,102047.44
2023-02-06T23:19:14.626Z,102051.06
2023-02-06T23:21:43.144Z,102050.97
2023-02-06T23:24:11.138Z,102052.78
2023-02-06T23:26:38.328Z,102041.09
2023-02-06T23:29:10.406Z,102033.88
2023-02-06T23:31:37.521Z,102037.38
2023-02-06T23:34:05.806Z,102043.53
2023-02-06T23:36:32.441Z,102038.25
2023-02-06T23:39:01.054Z,102036.47
2023-02-06T23:41:28.785Z,102024.69
2023-02-06T23:43:57.172Z,102031.78
2023-02-06T23:46:24.399Z,102044.28
2023-02-06T23:48:52.088Z,102043.38
2023-02-06T23:51:21.274Z,102039.75
2023-02-06T23:53:48.619Z,102047.91
2023-02-06T23:56:17.371Z,102042.47
2023-02-06T23:58:44.865Z,102052.25
